createdAt,value
2024-01-06T00:00:30.981Z,16.08
2024-01-06T00:03:04.020Z,16.80
2024-01-06T00:05:50.931Z,15.75
2024-01-06T00:08:23.987Z,15.40
2024-01-06T00:11:11.916Z,15.15
2024-01-06T00:13:45.197Z,15.73
2024-01-06T00:16:31.923Z,16.10
2024-01-06T00:19:05.225Z,17.98
2024-01-06T00:21:51.947Z,17.02
2024-01-06T00:24:32.025Z,16.90
2024-01-06T00:27:18.962Z,16.52
2024-01-06T00:29:58.968Z,16.10
2024-01-06T00:32:45.985Z,15.13
2024-01-06T00:35:25.936Z,16.25
2024-01-06T00:38:19.974Z,17.60
2024-01-06T00:41:06.911Z,17.08
2024-01-06T00:43:40.067Z,17.40
2024-01-06T00:46:26.906Z,16.65
2024-01-06T00:49:07.016Z,16.00
2024-01-06T00:52:00.968Z,18.02
2024-01-06T00:54:54.984Z,16.50
2024-01-06T00:57:42.035Z,17.00
2024-01-06T01:00:22.927Z,16.77
2024-01-06T01:03:09.975Z,16.05
2024-01-06T01:05:50.078Z,15.93
2024-01-06T01:08:43.951Z,16.42
2024-01-06T01:11:30.934Z,17.38
2024-01-06T01:14:11.098Z,16.80
2024-01-06T01:17:04.921Z,16.33
2024-01-06T01:19:52.056Z,16.55
2024-01-06T01:22:31.965Z,15.77
2024-01-06T01:25:13.926Z,16.92
2024-01-06T01:28:00.942Z,16.42
2024-01-06T01:30:41.017Z,16.27
2024-01-06T01:33:21.203Z,16.60
2024-01-06T01:36:02.659Z,17.83
2024-01-06T01:38:43.086Z,13.93
2024-01-06T01:41:22.960Z,16.25
2024-01-06T01:44:16.981Z,18.25
2024-01-06T01:47:10.989Z,16.90
2024-01-06T01:49:57.962Z,16.60
2024-01-06T01:52:31.066Z,19.48
2024-01-06T01:55:17.959Z,15.35
2024-01-06T01:57:52.075Z,16.13
2024-01-06T02:00:39.044Z,17.90
2024-01-06T02:03:13.139Z,20.13
2024-01-06T02:05:59.940Z,18.55
2024-01-06T02:08:33.043Z,18.83
2024-01-06T02:11:19.936Z,20.10
2024-01-06T02:13:53.055Z,17.65
2024-01-06T02:16:39.990Z,17.45
2024-01-06T02:19:18.876Z,17.48
2024-01-06T02:22:05.974Z,19.35
2024-01-06T02:24:39.108Z,19.38
2024-01-06T02:27:26.005Z,18.70
2024-01-06T02:30:05.972Z,18.85
2024-01-06T02:32:53.156Z,18.33
2024-01-06T02:35:33.948Z,19.27
2024-01-06T02:38:27.960Z,19.00
2024-01-06T02:41:14.971Z,18.35
2024-01-06T02:43:48.059Z,18.75
2024-01-06T02:46:34.961Z,19.17
2024-01-06T02:49:08.219Z,19.65
2024-01-06T02:51:55.030Z,18.55
2024-01-06T02:54:35.009Z,19.88
2024-01-06T02:57:23.024Z,20.35
2024-01-06T03:00:02.974Z,20.10
2024-01-06T03:02:50.977Z,21.13
2024-01-06T03:05:24.108Z,21.92
2024-01-06T03:08:18.987Z,22.80
2024-01-06T03:11:12.978Z,24.48
2024-01-06T03:14:07.015Z,23.02
2024-01-06T03:16:54.000Z,22.33
2024-01-06T03:19:28.562Z,24.55
2024-01-06T03:22:14.999Z,22.60
2024-01-06T03:24:48.209Z,22.70
2024-01-06T03:27:35.004Z,22.65
2024-01-06T03:30:22.079Z,23.13
2024-01-06T03:33:02.114Z,25.58
2024-01-06T03:35:48.996Z,22.88
2024-01-06T03:38:36.988Z,20.85
2024-01-06T03:41:17.157Z,20.92
2024-01-06T03:43:56.992Z,22.67
2024-01-06T03:46:37.074Z,23.88
2024-01-06T03:49:17.047Z,27.38
2024-01-06T03:51:57.225Z,32.13
2024-01-06T03:54:37.047Z,27.98
2024-01-06T03:57:17.128Z,27.65
2024-01-06T03:59:56.995Z,31.08
2024-01-06T04:02:37.088Z,26.60
2024-01-06T04:05:17.018Z,24.80
2024-01-06T04:07:57.119Z,22.90
2024-01-06T04:10:37.024Z,23.50
2024-01-06T04:13:24.994Z,22.73
2024-01-06T04:16:05.005Z,29.00
2024-01-06T04:18:52.082Z,27.42
2024-01-06T04:21:25.493Z,26.35
2024-01-06T04:24:12.145Z,24.80
2024-01-06T04:26:46.214Z,25.85
2024-01-06T04:29:33.007Z,25.60
2024-01-06T04:32:08.588Z,27.05
2024-01-06T04:34:55.001Z,24.63
2024-01-06T04:37:28.389Z,24.30
2024-01-06T04:40:15.997Z,26.83
2024-01-06T04:43:03.033Z,25.55
2024-01-06T04:45:58.078Z,25.35
2024-01-06T04:48:48.091Z,23.23
2024-01-06T04:51:21.331Z,25.70
2024-01-06T04:54:08.004Z,26.50
2024-01-06T04:56:41.116Z,24.95
2024-01-06T04:59:27.997Z,24.33
2024-01-06T05:02:02.231Z,24.95
2024-01-06T05:04:56.042Z,25.75
2024-01-06T05:07:50.006Z,25.42
2024-01-06T05:10:37.013Z,26.10
2024-01-06T05:13:10.110Z,25.10
2024-01-06T05:15:57.160Z,27.02
2024-01-06T05:18:30.288Z,26.27
2024-01-06T05:21:17.097Z,28.42
2024-01-06T05:23:57.021Z,29.45
2024-01-06T05:26:51.021Z,29.70
2024-01-06T05:29:38.054Z,29.10
2024-01-06T05:32:18.872Z,27.67
2024-01-06T05:34:59.221Z,28.02
2024-01-06T05:37:40.227Z,27.98
2024-01-06T05:40:20.022Z,28.52
2024-01-06T05:43:14.069Z,27.65
2024-01-06T05:46:01.076Z,25.92
2024-01-06T05:48:34.430Z,25.35
2024-01-06T05:51:21.103Z,27.67
2024-01-06T05:53:54.184Z,28.67
2024-01-06T05:56:41.064Z,28.42
2024-01-06T05:59:14.134Z,26.83
2024-01-06T06:02:01.116Z,27.98
2024-01-06T06:04:34.313Z,28.25
2024-01-06T06:07:21.059Z,27.30
2024-01-06T06:10:02.229Z,27.55
2024-01-06T06:12:49.152Z,28.50
2024-01-06T06:15:29.054Z,31.85
2024-01-06T06:18:16.234Z,29.95
2024-01-06T06:20:56.065Z,30.85
2024-01-06T06:23:50.090Z,29.70
2024-01-06T06:26:38.773Z,33.75
2024-01-06T06:29:13.175Z,32.58
2024-01-06T06:32:00.074Z,32.20
2024-01-06T06:34:33.235Z,35.50
2024-01-06T06:37:20.073Z,36.50
2024-01-06T06:40:00.145Z,34.25
2024-01-06T06:42:54.070Z,31.83
2024-01-06T06:45:41.147Z,34.22
2024-01-06T06:48:14.373Z,34.13
2024-01-06T06:51:01.102Z,31.15
2024-01-06T06:53:41.076Z,35.08
2024-01-06T06:56:28.094Z,34.92
2024-01-06T06:59:08.043Z,35.55
2024-01-06T07:01:55.105Z,35.72
2024-01-06T07:04:28.336Z,35.35
2024-01-06T07:07:15.079Z,34.60
2024-01-06T07:09:48.291Z,33.55
2024-01-06T07:12:35.113Z,34.75
2024-01-06T07:15:11.270Z,34.17
2024-01-06T07:17:58.137Z,37.13
2024-01-06T07:20:31.241Z,35.17
2024-01-06T07:23:18.070Z,33.80
2024-01-06T07:25:58.077Z,31.38
2024-01-06T07:28:45.089Z,33.70
2024-01-06T07:31:18.894Z,38.33
2024-01-06T07:34:06.163Z,36.58
2024-01-06T07:36:42.451Z,46.95
2024-01-06T07:39:29.103Z,38.13
2024-01-06T07:42:02.184Z,39.10
2024-01-06T07:44:49.091Z,40.35
2024-01-06T07:47:22.182Z,41.55
2024-01-06T07:50:09.080Z,37.95
2024-01-06T07:52:49.102Z,37.00
2024-01-06T07:55:36.082Z,40.90
2024-01-06T07:58:16.129Z,36.00
2024-01-06T08:01:03.288Z,37.25
2024-01-06T08:03:44.197Z,35.78
2024-01-06T08:06:31.099Z,35.70
2024-01-06T08:09:11.115Z,37.75
2024-01-06T08:12:05.118Z,34.17
2024-01-06T08:14:52.096Z,38.17
2024-01-06T08:17:25.252Z,32.67
2024-01-06T08:20:13.102Z,32.40
2024-01-06T08:22:46.204Z,32.53
2024-01-06T08:25:33.104Z,32.83
2024-01-06T08:28:16.130Z,31.73
2024-01-06T08:31:03.251Z,31.25
2024-01-06T08:33:43.336Z,31.20
2024-01-06T08:36:23.168Z,29.17
2024-01-06T08:39:10.134Z,29.13
2024-01-06T08:41:43.664Z,26.40
2024-01-06T08:44:30.142Z,26.67
2024-01-06T08:47:10.131Z,27.10
2024-01-06T08:49:57.275Z,28.38
2024-01-06T08:52:30.507Z,26.67
2024-01-06T08:55:17.135Z,27.55
2024-01-06T08:57:57.159Z,27.33
2024-01-06T09:00:37.303Z,28.10
2024-01-06T09:03:17.264Z,26.38
2024-01-06T09:05:57.225Z,28.35
2024-01-06T09:08:37.102Z,29.13
2024-01-06T09:11:17.327Z,26.25
2024-01-06T09:14:00.165Z,26.15
2024-01-06T09:16:40.304Z,26.40
2024-01-06T09:19:20.435Z,27.48
2024-01-06T09:22:00.331Z,30.67
2024-01-06T09:24:41.198Z,28.67
2024-01-06T09:27:21.274Z,27.45
2024-01-06T09:30:01.180Z,27.65
2024-01-06T09:32:41.544Z,26.40
2024-01-06T09:35:28.102Z,29.60
2024-01-06T09:38:01.269Z,27.17
2024-01-06T09:40:52.147Z,25.55
2024-01-06T09:43:32.139Z,22.02
2024-01-06T09:46:25.135Z,24.33
2024-01-06T09:48:59.919Z,25.52
2024-01-06T09:51:48.212Z,25.17
2024-01-06T09:54:22.268Z,25.02
2024-01-06T09:57:11.132Z,26.02
2024-01-06T09:59:45.134Z,23.55
2024-01-06T10:02:33.159Z,21.08
2024-01-06T10:05:13.249Z,22.02
2024-01-06T10:08:07.158Z,18.27
2024-01-06T10:10:54.149Z,21.83
2024-01-06T10:13:34.160Z,23.02
2024-01-06T10:16:28.182Z,19.60
2024-01-06T10:19:15.315Z,19.60
2024-01-06T10:21:55.270Z,20.60
2024-01-06T10:24:45.263Z,19.15
2024-01-06T10:27:18.737Z,18.75
2024-01-06T10:30:05.206Z,21.90
2024-01-06T10:32:40.396Z,19.08
2024-01-06T10:35:27.227Z,21.10
2024-01-06T10:38:02.267Z,21.20
2024-01-06T10:41:15.227Z,21.13
2024-01-06T10:43:57.165Z,23.85
2024-01-06T10:46:52.170Z,21.85
2024-01-06T10:49:39.478Z,19.23
2024-01-06T10:52:14.327Z,19.95
2024-01-06T10:55:04.286Z,19.05
2024-01-06T10:57:38.370Z,24.20
2024-01-06T11:00:25.205Z,20.48
2024-01-06T11:03:00.496Z,21.92
2024-01-06T11:05:56.227Z,23.70
2024-01-06T11:08:57.163Z,24.60
2024-01-06T11:11:52.157Z,23.13
2024-01-06T11:14:53.183Z,21.92
2024-01-06T11:18:03.233Z,22.58
2024-01-06T11:20:43.214Z,19.65
2024-01-06T11:23:39.690Z,20.90
2024-01-06T11:26:26.231Z,18.98
2024-01-06T11:28:59.868Z,18.55
2024-01-06T11:31:46.345Z,20.15
2024-01-06T11:34:26.328Z,23.63
2024-01-06T11:37:06.236Z,18.05
2024-01-06T11:39:49.333Z,16.92
2024-01-06T11:42:29.207Z,19.15
2024-01-06T11:45:26.240Z,18.85
2024-01-06T11:48:25.063Z,18.08
2024-01-06T11:51:12.202Z,16.73
2024-01-06T11:53:45.306Z,15.50
2024-01-06T11:56:32.173Z,17.25
2024-01-06T11:59:12.267Z,19.73
2024-01-06T12:02:06.194Z,22.02
2024-01-06T12:05:01.251Z,21.02
2024-01-06T12:07:36.127Z,18.17
2024-01-06T12:10:23.252Z,19.48
2024-01-06T12:13:10.526Z,20.90
2024-01-06T12:16:04.286Z,21.35
2024-01-06T12:18:58.299Z,18.92
2024-01-06T12:21:45.261Z,18.60
2024-01-06T12:24:33.225Z,21.13
2024-01-06T12:27:29.247Z,20.63
2024-01-06T12:30:28.303Z,21.40
2024-01-06T12:33:15.420Z,19.60
2024-01-06T12:35:56.016Z,18.40
2024-01-06T12:38:37.260Z,19.40
2024-01-06T12:41:18.302Z,21.27
2024-01-06T12:43:58.203Z,20.35
2024-01-06T12:46:45.298Z,19.67
2024-01-06T12:49:25.283Z,20.73
2024-01-06T12:52:05.463Z,22.02
2024-01-06T12:54:47.918Z,23.98
2024-01-06T12:57:35.307Z,22.20
2024-01-06T13:00:11.918Z,22.30
2024-01-06T13:02:58.232Z,21.15
2024-01-06T13:05:38.327Z,23.83
2024-01-06T13:08:25.232Z,22.60
2024-01-06T13:11:05.261Z,26.38
2024-01-06T13:13:45.408Z,26.50
2024-01-06T13:16:25.288Z,22.52
2024-01-06T13:19:05.910Z,23.52
2024-01-06T13:21:47.518Z,24.08
2024-01-06T13:24:27.351Z,24.77
2024-01-06T13:27:10.276Z,24.25
2024-01-06T13:29:50.312Z,22.35
2024-01-06T13:32:30.278Z,25.50
2024-01-06T13:35:19.216Z,26.73
2024-01-06T13:38:06.262Z,27.42
2024-01-06T13:40:46.285Z,26.13
2024-01-06T13:43:40.258Z,25.98
2024-01-06T13:46:34.241Z,28.65
2024-01-06T13:49:21.327Z,26.85
2024-01-06T13:52:01.293Z,27.17
2024-01-06T13:54:56.332Z,26.83
2024-01-06T13:57:43.245Z,27.00
2024-01-06T14:00:20.997Z,26.67
2024-01-06T14:03:08.379Z,29.13
2024-01-06T14:05:41.466Z,26.63
2024-01-06T14:08:28.294Z,25.27
2024-01-06T14:11:01.336Z,27.85
2024-01-06T14:13:48.263Z,25.20
2024-01-06T14:16:21.924Z,22.05
2024-01-06T14:19:09.343Z,24.70
2024-01-06T14:21:49.331Z,25.13
2024-01-06T14:24:36.254Z,21.90
2024-01-06T14:27:09.390Z,23.63
2024-01-06T14:29:56.289Z,26.10
2024-01-06T14:32:37.318Z,29.55
2024-01-06T14:35:24.303Z,28.23
2024-01-06T14:38:11.247Z,25.17
2024-01-06T14:40:44.981Z,25.05
2024-01-06T14:43:31.259Z,27.30
2024-01-06T14:46:26.253Z,26.90
2024-01-06T14:49:13.408Z,29.88
2024-01-06T14:51:47.801Z,27.25
2024-01-06T14:54:38.363Z,29.30
2024-01-06T14:57:12.419Z,27.80
2024-01-06T14:59:59.316Z,30.77
2024-01-06T15:02:39.269Z,31.42
2024-01-06T15:05:26.349Z,37.33
2024-01-06T15:07:59.612Z,39.10
2024-01-06T15:10:47.283Z,31.15
2024-01-06T15:13:20.915Z,34.20
2024-01-06T15:16:07.376Z,32.75
2024-01-06T15:18:41.504Z,34.05
2024-01-06T15:21:30.350Z,32.55
2024-01-06T15:24:10.281Z,30.40
2024-01-06T15:27:00.279Z,28.38
2024-01-06T15:29:40.299Z,29.05
2024-01-06T15:32:34.347Z,32.08
2024-01-06T15:35:28.302Z,43.40
2024-01-06T15:38:15.290Z,30.50
2024-01-06T15:40:55.344Z,30.38
2024-01-06T15:43:49.317Z,26.08
2024-01-06T15:46:36.337Z,29.70
2024-01-06T15:49:17.407Z,27.63
2024-01-06T15:52:15.278Z,27.13
2024-01-06T15:55:09.396Z,23.30
2024-01-06T15:57:56.341Z,25.98
2024-01-06T16:00:29.463Z,28.38
2024-01-06T16:03:16.463Z,26.95
2024-01-06T16:05:51.279Z,26.55
2024-01-06T16:08:38.329Z,26.30
2024-01-06T16:11:12.480Z,34.00
2024-01-06T16:13:59.334Z,28.30
2024-01-06T16:16:36.466Z,30.13
2024-01-06T16:19:23.570Z,44.13
2024-01-06T16:22:07.104Z,56.60
2024-01-06T16:25:01.373Z,53.83
2024-01-06T16:27:34.436Z,42.90
2024-01-06T16:30:21.495Z,46.45
2024-01-06T16:33:02.499Z,50.97
2024-01-06T16:35:56.285Z,33.13
2024-01-06T16:38:50.344Z,26.05
2024-01-06T16:41:37.346Z,25.33
2024-01-06T16:44:18.308Z,31.40
2024-01-06T16:47:12.349Z,27.00
2024-01-06T16:49:59.305Z,29.67
2024-01-06T16:52:32.456Z,27.92
2024-01-06T16:55:19.342Z,28.95
2024-01-06T16:57:59.334Z,27.85
2024-01-06T17:00:53.535Z,29.20
2024-01-06T17:03:40.414Z,34.97
2024-01-06T17:06:13.450Z,31.77
2024-01-06T17:09:00.310Z,32.28
2024-01-06T17:11:40.341Z,35.38
2024-01-06T17:14:27.341Z,32.45
2024-01-06T17:17:00.413Z,29.98
2024-01-06T17:19:47.417Z,33.45
2024-01-06T17:22:27.330Z,33.65
2024-01-06T17:25:21.351Z,31.55
2024-01-06T17:28:08.382Z,31.08
2024-01-06T17:30:41.593Z,31.88
2024-01-06T17:33:28.419Z,28.85
2024-01-06T17:36:09.345Z,32.97
2024-01-06T17:38:57.351Z,32.25
2024-01-06T17:41:33.804Z,32.40
2024-01-06T17:44:31.383Z,30.00
2024-01-06T17:47:26.368Z,29.20
2024-01-06T17:50:13.351Z,30.25
2024-01-06T17:52:53.339Z,28.35
2024-01-06T17:55:40.334Z,31.05
2024-01-06T17:58:20.355Z,30.40
2024-01-06T18:01:07.458Z,28.15
2024-01-06T18:03:40.565Z,28.80
2024-01-06T18:06:28.428Z,30.63
2024-01-06T18:09:02.365Z,34.72
2024-01-06T18:11:50.345Z,34.53
2024-01-06T18:14:24.423Z,30.52
2024-01-06T18:17:11.383Z,31.25
2024-01-06T18:19:44.511Z,35.47
2024-01-06T18:22:31.348Z,34.35
2024-01-06T18:25:11.340Z,37.28
2024-01-06T18:28:05.388Z,36.13
2024-01-06T18:31:01.471Z,34.97
2024-01-06T18:33:55.423Z,37.10
2024-01-06T18:36:42.436Z,37.88
2024-01-06T18:39:15.487Z,35.63
2024-01-06T18:42:02.375Z,36.97
2024-01-06T18:44:42.405Z,35.67
2024-01-06T18:47:36.390Z,34.45
2024-01-06T18:50:26.387Z,32.38
2024-01-06T18:53:06.414Z,33.47
2024-01-06T18:55:53.352Z,33.00
2024-01-06T18:58:33.352Z,31.92
2024-01-06T19:01:27.461Z,34.63
2024-01-06T19:04:14.450Z,33.38
2024-01-06T19:06:47.517Z,32.67
2024-01-06T19:09:36.411Z,31.63
2024-01-06T19:12:09.531Z,35.38
2024-01-06T19:14:56.366Z,32.95
2024-01-06T19:17:29.548Z,30.58
2024-01-06T19:20:16.381Z,30.08
2024-01-06T19:23:06.038Z,29.40
2024-01-06T19:25:56.392Z,32.42
2024-01-06T19:28:36.387Z,29.88
2024-01-06T19:31:23.423Z,29.00
2024-01-06T19:34:03.484Z,26.23
2024-01-06T19:36:50.405Z,25.58
2024-01-06T19:39:23.542Z,28.60
2024-01-06T19:42:11.422Z,23.70
2024-01-06T19:45:05.476Z,23.25
2024-01-06T19:47:59.551Z,23.65
2024-01-06T19:50:46.434Z,25.35
2024-01-06T19:53:19.493Z,24.60
2024-01-06T19:56:09.439Z,24.73
2024-01-06T19:58:42.505Z,22.98
2024-01-06T20:01:29.516Z,25.48
2024-01-06T20:04:09.503Z,25.40
2024-01-06T20:06:56.493Z,23.35
2024-01-06T20:09:29.583Z,23.00
2024-01-06T20:12:16.361Z,22.42
2024-01-06T20:14:49.532Z,20.60
2024-01-06T20:17:36.455Z,20.25
2024-01-06T20:20:11.492Z,21.98
2024-01-06T20:22:58.400Z,22.65
2024-01-06T20:25:31.549Z,24.30
2024-01-06T20:28:18.420Z,22.05
2024-01-06T20:30:58.516Z,24.33
2024-01-06T20:33:52.508Z,22.23
2024-01-06T20:36:46.498Z,24.52
2024-01-06T20:39:33.407Z,22.17
2024-01-06T20:42:14.441Z,24.60
2024-01-06T20:45:09.409Z,23.00
2024-01-06T20:48:03.468Z,21.58
2024-01-06T20:50:57.398Z,22.20
2024-01-06T20:53:44.464Z,22.77
2024-01-06T20:56:24.408Z,18.83
2024-01-06T20:59:14.439Z,19.98
2024-01-06T21:01:49.699Z,20.50
2024-01-06T21:04:36.413Z,21.05
2024-01-06T21:07:16.470Z,20.05
2024-01-06T21:10:12.450Z,22.15
2024-01-06T21:12:59.528Z,22.25
2024-01-06T21:15:32.624Z,21.70
2024-01-06T21:18:19.469Z,20.15
2024-01-06T21:20:52.546Z,20.85
2024-01-06T21:23:45.182Z,19.40
2024-01-06T21:26:29.479Z,22.25
2024-01-06T21:29:26.460Z,22.23
2024-01-06T21:32:20.445Z,22.10
2024-01-06T21:35:14.431Z,19.73
2024-01-06T21:38:11.438Z,18.85
2024-01-06T21:40:58.433Z,19.60
2024-01-06T21:43:31.511Z,20.60
2024-01-06T21:46:25.457Z,20.45
2024-01-06T21:49:12.462Z,20.08
2024-01-06T21:51:59.565Z,20.33
2024-01-06T21:54:46.457Z,21.40
2024-01-06T21:57:19.986Z,22.17
2024-01-06T22:00:08.181Z,21.40
2024-01-06T22:02:49.457Z,22.90
2024-01-06T22:05:36.516Z,19.98
2024-01-06T22:08:09.524Z,21.60
2024-01-06T22:10:56.434Z,20.13
2024-01-06T22:13:36.430Z,21.55
2024-01-06T22:16:23.432Z,20.55
2024-01-06T22:19:03.510Z,20.73
2024-01-06T22:21:51.457Z,19.92
2024-01-06T22:24:33.496Z,20.77
2024-01-06T22:27:27.490Z,19.48
2024-01-06T22:30:15.532Z,19.73
2024-01-06T22:32:57.477Z,19.23
2024-01-06T22:35:44.451Z,19.00
2024-01-06T22:38:24.446Z,19.45
2024-01-06T22:41:11.443Z,19.42
2024-01-06T22:43:51.464Z,20.13
2024-01-06T22:46:38.559Z,20.25
2024-01-06T22:49:18.473Z,19.77
2024-01-06T22:51:58.659Z,19.95
2024-01-06T22:54:38.468Z,20.35
2024-01-06T22:57:18.455Z,20.23
2024-01-06T22:59:58.438Z,21.48
2024-01-06T23:02:45.435Z,19.73
2024-01-06T23:05:25.474Z,20.30
2024-01-06T23:08:19.509Z,19.15
2024-01-06T23:11:06.448Z,21.05
2024-01-06T23:13:39.537Z,21.02
2024-01-06T23:16:26.543Z,19.88
2024-01-06T23:19:01.019Z,19.58
2024-01-06T23:21:47.500Z,19.17
2024-01-06T23:24:21.553Z,19.30
2024-01-06T23:27:01.896Z,21.75
2024-01-06T23:29:42.515Z,19.40
2024-01-06T23:32:22.594Z,18.52
2024-01-06T23:35:09.523Z,18.25
2024-01-06T23:37:49.452Z,19.23
2024-01-06T23:40:36.433Z,19.23
2024-01-06T23:43:11.544Z,19.17
2024-01-06T23:46:05.459Z,18.88
2024-01-06T23:48:52.506Z,19.85
2024-01-06T23:51:33.476Z,19.48
2024-01-06T23:54:27.467Z,20.80
2024-01-06T23:57:14.452Z,20.48
2024-01-06T23:59:47.579Z,19.65
